createdAt,value
2022-08-03T00:01:32.289Z,20.80
2022-08-03T00:03:59.343Z,20.80
2022-08-03T00:06:26.353Z,20.80
2022-08-03T00:08:53.356Z,20.70
2022-08-03T00:11:20.385Z,20.70
2022-08-03T00:13:47.353Z,20.70
2022-08-03T00:16:14.523Z,20.60
2022-08-03T00:18:41.575Z,20.60
2022-08-03T00:21:09.070Z,20.60
2022-08-03T00:23:52.313Z,20.60
2022-08-03T00:26:20.826Z,20.50
2022-08-03T00:28:48.495Z,20.50
2022-08-03T00:31:15.524Z,20.50
2022-08-03T00:33:58.994Z,20.50
2022-08-03T00:36:28.131Z,20.40
2022-08-03T00:38:56.358Z,20.40
2022-08-03T00:41:23.349Z,20.40
2022-08-03T00:43:50.624Z,20.40
2022-08-03T00:46:21.360Z,20.40
2022-08-03T00:48:52.429Z,20.30
2022-08-03T00:51:21.557Z,20.30
2022-08-03T00:53:49.001Z,20.30
2022-08-03T00:56:17.450Z,20.30
2022-08-03T00:58:45.402Z,20.20
2022-08-03T01:01:12.931Z,20.20
2022-08-03T01:03:40.578Z,20.20
2022-08-03T01:06:10.764Z,20.20
2022-08-03T01:08:59.654Z,20.10
2022-08-03T01:11:29.511Z,20.10
2022-08-03T01:14:18.682Z,20.10
2022-08-03T01:17:44.130Z,20.10
2022-08-03T01:20:15.167Z,20.00
2022-08-03T01:23:03.676Z,20.00
2022-08-03T01:25:54.934Z,19.90
2022-08-03T01:29:03.341Z,19.90
2022-08-03T01:31:37.052Z,19.90
2022-08-03T01:34:31.467Z,19.80
2022-08-03T01:37:02.032Z,19.80
2022-08-03T01:39:31.921Z,19.80
2022-08-03T01:42:06.215Z,19.80
2022-08-03T01:44:38.357Z,19.70
2022-08-03T01:47:06.541Z,19.80
2022-08-03T01:49:38.998Z,19.70
2022-08-03T01:52:07.645Z,19.70
2022-08-03T01:54:45.387Z,19.70
2022-08-03T01:57:14.191Z,19.60
2022-08-03T01:59:43.141Z,19.60
2022-08-03T02:02:19.557Z,19.50
2022-08-03T02:05:01.621Z,19.50
2022-08-03T02:07:30.432Z,19.50
2022-08-03T02:09:59.837Z,19.50
2022-08-03T02:12:28.826Z,19.50
2022-08-03T02:14:59.937Z,19.50
2022-08-03T02:17:39.228Z,19.40
2022-08-03T02:20:09.115Z,19.40
2022-08-03T02:22:37.776Z,19.40
2022-08-03T02:25:05.118Z,19.40
2022-08-03T02:27:34.495Z,19.30
2022-08-03T02:30:09.403Z,19.30
2022-08-03T02:32:39.411Z,19.20
2022-08-03T02:35:13.326Z,19.20
2022-08-03T02:37:49.812Z,19.20
2022-08-03T02:40:19.424Z,19.20
2022-08-03T02:42:49.423Z,19.20
2022-08-03T02:45:18.354Z,19.10
2022-08-03T02:47:54.345Z,19.10
2022-08-03T02:50:23.902Z,19.10
2022-08-03T02:52:53.278Z,19.10
2022-08-03T02:55:22.459Z,19.10
2022-08-03T02:57:51.007Z,19.00
2022-08-03T03:00:19.634Z,19.00
2022-08-03T03:03:01.464Z,18.90
2022-08-03T03:05:55.449Z,18.90
2022-08-03T03:08:20.824Z,18.90
2022-08-03T03:10:55.529Z,18.90
2022-08-03T03:13:23.439Z,18.90
2022-08-03T03:15:52.196Z,18.90
2022-08-03T03:18:22.741Z,18.80
2022-08-03T03:20:52.634Z,18.80
2022-08-03T03:23:24.891Z,18.80
2022-08-03T03:25:52.996Z,18.80
2022-08-03T03:28:20.855Z,18.70
2022-08-03T03:30:52.810Z,18.70
2022-08-03T03:33:21.755Z,18.70
2022-08-03T03:35:48.981Z,18.70
2022-08-03T03:38:16.081Z,18.60
2022-08-03T03:40:43.458Z,18.70
2022-08-03T03:43:12.134Z,18.60
2022-08-03T03:45:41.955Z,18.60
2022-08-03T03:48:09.066Z,18.50
2022-08-03T03:50:37.505Z,18.60
2022-08-03T03:53:04.882Z,18.50
2022-08-03T03:55:31.931Z,18.50
2022-08-03T03:57:59.613Z,18.40
2022-08-03T04:00:26.533Z,18.40
2022-08-03T04:02:53.506Z,18.40
2022-08-03T04:05:42.875Z,18.40
2022-08-03T04:08:36.252Z,18.40
2022-08-03T04:11:30.271Z,18.40
2022-08-03T04:14:04.944Z,18.40
2022-08-03T04:16:35.579Z,18.40
2022-08-03T04:19:08.174Z,18.40
2022-08-03T04:21:38.225Z,18.30
2022-08-03T04:24:08.553Z,18.30
2022-08-03T04:26:39.833Z,18.30
2022-08-03T04:29:09.406Z,18.30
2022-08-03T04:31:38.509Z,18.20
2022-08-03T04:34:06.085Z,18.20
2022-08-03T04:36:37.171Z,18.30
2022-08-03T04:39:17.019Z,18.20
2022-08-03T04:42:04.733Z,18.20
2022-08-03T04:44:37.746Z,18.20
2022-08-03T04:47:04.794Z,18.20
2022-08-03T04:49:32.671Z,18.10
2022-08-03T04:51:59.845Z,18.10
2022-08-03T04:54:26.795Z,18.10
2022-08-03T04:56:53.745Z,18.10
2022-08-03T04:59:20.698Z,18.20
2022-08-03T05:01:47.756Z,18.10
2022-08-03T05:04:15.255Z,18.10
2022-08-03T05:06:48.045Z,18.10
2022-08-03T05:09:15.460Z,18.10
2022-08-03T05:12:02.466Z,18.10
2022-08-03T05:14:29.383Z,18.10
2022-08-03T05:16:56.331Z,18.20
2022-08-03T05:19:23.287Z,18.10
2022-08-03T05:21:52.581Z,18.20
2022-08-03T05:24:20.023Z,18.10
2022-08-03T05:26:47.061Z,18.10
2022-08-03T05:29:14.027Z,18.20
2022-08-03T05:31:40.947Z,18.20
2022-08-03T05:34:08.367Z,18.20
2022-08-03T05:36:35.287Z,18.20
2022-08-03T05:39:02.882Z,18.30
2022-08-03T05:41:36.570Z,18.30
2022-08-03T05:44:05.054Z,18.30
2022-08-03T05:46:32.297Z,18.30
2022-08-03T05:48:59.486Z,18.30
2022-08-03T05:51:26.580Z,18.40
2022-08-03T05:53:53.562Z,18.40
2022-08-03T05:56:25.244Z,18.40
2022-08-03T05:58:52.786Z,18.40
2022-08-03T06:01:22.059Z,18.40
2022-08-03T06:03:50.436Z,18.50
2022-08-03T06:06:17.926Z,18.50
2022-08-03T06:08:46.148Z,18.60
2022-08-03T06:11:13.570Z,18.60
2022-08-03T06:13:41.158Z,18.70
2022-08-03T06:16:08.196Z,18.70
2022-08-03T06:18:35.866Z,18.80
2022-08-03T06:21:14.801Z,18.90
2022-08-03T06:23:54.418Z,18.90
2022-08-03T06:26:24.120Z,19.00
2022-08-03T06:28:53.329Z,19.10
2022-08-03T06:31:26.209Z,19.20
2022-08-03T06:34:33.638Z,19.30
2022-08-03T06:36:50.991Z,19.30
2022-08-03T06:39:20.017Z,19.40
2022-08-03T06:41:46.943Z,19.40
2022-08-03T06:44:13.961Z,19.50
2022-08-03T06:46:41.092Z,19.60
2022-08-03T06:49:08.415Z,19.70
2022-08-03T06:52:03.276Z,19.80
2022-08-03T06:54:22.420Z,19.80
2022-08-03T06:56:49.370Z,19.90
2022-08-03T07:00:06.512Z,20.00
2022-08-03T07:02:03.838Z,20.00
2022-08-03T07:04:30.977Z,20.10
2022-08-03T07:06:58.597Z,20.20
2022-08-03T07:09:26.908Z,20.30
2022-08-03T07:11:54.596Z,20.40
2022-08-03T07:14:21.929Z,20.40
2022-08-03T07:16:48.952Z,20.50
2022-08-03T07:19:16.139Z,20.50
2022-08-03T07:21:43.103Z,20.60
2022-08-03T07:24:10.029Z,20.70
2022-08-03T07:26:37.095Z,20.80
2022-08-03T07:29:04.208Z,20.80
2022-08-03T07:31:42.321Z,20.90
2022-08-03T07:34:09.256Z,21.00
2022-08-03T07:36:36.318Z,21.10
2022-08-03T07:39:17.908Z,21.20
2022-08-03T07:41:46.040Z,21.30
2022-08-03T07:44:13.365Z,21.40
2022-08-03T07:46:40.303Z,21.50
2022-08-03T07:49:07.299Z,21.60
2022-08-03T07:51:34.446Z,21.80
2022-08-03T07:54:01.537Z,21.90
2022-08-03T07:56:28.768Z,21.90
2022-08-03T07:58:56.199Z,22.00
2022-08-03T08:01:23.453Z,22.20
2022-08-03T08:03:53.238Z,22.40
2022-08-03T08:06:21.719Z,22.40
2022-08-03T08:08:48.771Z,22.50
2022-08-03T08:11:15.845Z,22.70
2022-08-03T08:13:42.966Z,22.80
2022-08-03T08:16:12.685Z,22.90
2022-08-03T08:18:39.631Z,23.10
2022-08-03T08:21:06.924Z,23.20
2022-08-03T08:23:42.442Z,23.30
2022-08-03T08:26:11.062Z,23.40
2022-08-03T08:28:38.190Z,23.60
2022-08-03T08:31:05.178Z,23.70
2022-08-03T08:34:02.727Z,23.80
2022-08-03T08:36:22.117Z,23.90
2022-08-03T08:38:49.147Z,24.10
2022-08-03T08:41:17.056Z,24.20
2022-08-03T08:43:44.086Z,24.40
2022-08-03T08:46:13.069Z,24.50
2022-08-03T08:48:51.506Z,24.70
2022-08-03T08:51:20.933Z,24.90
2022-08-03T08:53:53.813Z,25.00
2022-08-03T08:56:25.581Z,25.20
2022-08-03T08:58:58.083Z,25.30
2022-08-03T09:01:25.228Z,25.40
2022-08-03T09:03:54.184Z,25.50
2022-08-03T09:06:22.110Z,25.70
2022-08-03T09:08:49.237Z,25.80
2022-08-03T09:11:16.232Z,25.90
2022-08-03T09:13:43.184Z,26.10
2022-08-03T09:16:12.566Z,26.30
2022-08-03T09:18:40.385Z,26.40
2022-08-03T09:21:34.968Z,26.60
2022-08-03T09:24:05.890Z,26.70
2022-08-03T09:26:36.149Z,26.90
2022-08-03T09:29:13.884Z,27.00
2022-08-03T09:31:47.052Z,27.20
2022-08-03T09:34:16.284Z,27.30
2022-08-03T09:36:48.087Z,27.40
2022-08-03T09:39:37.512Z,27.50
2022-08-03T09:42:09.060Z,27.70
2022-08-03T09:44:43.901Z,27.80
2022-08-03T09:47:12.732Z,27.90
2022-08-03T09:49:41.797Z,28.00
2022-08-03T09:52:37.819Z,28.20
2022-08-03T09:55:23.394Z,28.30
2022-08-03T09:58:07.069Z,28.40
2022-08-03T10:00:59.609Z,28.60
2022-08-03T10:03:29.801Z,28.70
2022-08-03T10:05:59.835Z,28.80
2022-08-03T10:08:27.259Z,29.00
2022-08-03T10:10:54.768Z,29.10
2022-08-03T10:13:23.396Z,29.20
2022-08-03T10:16:23.117Z,29.30
2022-08-03T10:18:37.899Z,29.50
2022-08-03T10:21:10.444Z,29.70
2022-08-03T10:23:40.109Z,29.90
2022-08-03T10:26:08.394Z,30.00
2022-08-03T10:28:44.516Z,30.20
2022-08-03T10:31:14.104Z,30.30
2022-08-03T10:33:52.866Z,30.40
2022-08-03T10:36:25.038Z,30.60
2022-08-03T10:38:53.764Z,30.70
2022-08-03T10:41:23.328Z,30.80
2022-08-03T10:44:02.186Z,30.90
2022-08-03T10:46:29.408Z,30.90
2022-08-03T10:48:57.052Z,31.10
2022-08-03T10:51:25.025Z,31.20
2022-08-03T10:53:54.614Z,31.30
2022-08-03T10:56:54.612Z,31.40
2022-08-03T10:59:46.690Z,31.50
2022-08-03T11:02:15.487Z,31.70
2022-08-03T11:04:44.773Z,31.80
2022-08-03T11:07:17.951Z,31.90
2022-08-03T11:09:50.662Z,31.90
2022-08-03T11:12:30.037Z,32.10
2022-08-03T11:15:07.680Z,32.20
2022-08-03T11:17:46.433Z,32.30
2022-08-03T11:20:48.772Z,32.40
2022-08-03T11:23:17.328Z,32.50
2022-08-03T11:26:13.056Z,32.50
2022-08-03T11:28:41.112Z,32.70
2022-08-03T11:31:48.014Z,32.80
2022-08-03T11:34:13.033Z,32.80
2022-08-03T11:37:17.628Z,32.90
2022-08-03T11:39:47.493Z,33.10
2022-08-03T11:42:26.298Z,33.10
2022-08-03T11:44:58.547Z,33.20
2022-08-03T11:47:27.963Z,33.20
2022-08-03T11:50:00.755Z,33.30
2022-08-03T11:52:33.880Z,33.30
2022-08-03T11:55:01.916Z,33.40
2022-08-03T11:59:01.775Z,33.40
2022-08-03T12:00:26.677Z,33.50
2022-08-03T12:03:01.270Z,33.70
2022-08-03T12:05:40.459Z,33.80
2022-08-03T12:08:08.683Z,33.80
2022-08-03T12:10:37.086Z,33.90
2022-08-03T12:14:36.707Z,34.00
2022-08-03T12:15:56.099Z,34.10
2022-08-03T12:18:24.345Z,34.20
2022-08-03T12:20:54.315Z,34.30
2022-08-03T12:23:21.349Z,34.20
2022-08-03T12:25:49.557Z,34.30
2022-08-03T12:28:37.128Z,34.30
2022-08-03T12:31:09.536Z,34.40
2022-08-03T12:34:00.338Z,34.40
2022-08-03T12:36:28.527Z,34.60
2022-08-03T12:39:04.939Z,34.70
2022-08-03T12:41:35.469Z,34.80
2022-08-03T12:44:04.407Z,34.80
2022-08-03T12:46:34.210Z,34.80
2022-08-03T12:49:05.892Z,34.80
2022-08-03T12:51:54.395Z,34.80
2022-08-03T12:54:27.169Z,34.80
2022-08-03T12:57:15.804Z,34.80
2022-08-03T12:59:53.257Z,34.80
2022-08-03T13:02:23.703Z,34.90
2022-08-03T13:04:52.853Z,34.90
2022-08-03T13:07:21.018Z,34.90
2022-08-03T13:09:53.258Z,34.90
2022-08-03T13:12:22.994Z,34.90
2022-08-03T13:14:53.711Z,35.00
2022-08-03T13:17:21.384Z,35.00
2022-08-03T13:19:49.348Z,35.20
2022-08-03T13:22:18.549Z,35.30
2022-08-03T13:24:47.264Z,35.40
2022-08-03T13:28:01.165Z,35.50
2022-08-03T13:30:01.788Z,35.60
2022-08-03T13:32:28.726Z,35.70
2022-08-03T13:34:55.724Z,35.80
2022-08-03T13:37:23.097Z,35.80
2022-08-03T13:39:59.801Z,35.90
2022-08-03T13:42:29.695Z,36.00
2022-08-03T13:44:56.693Z,36.10
2022-08-03T13:47:23.751Z,36.20
2022-08-03T13:49:59.650Z,36.30
2022-08-03T13:52:34.011Z,36.30
2022-08-03T13:55:01.832Z,36.40
2022-08-03T13:58:11.349Z,36.40
2022-08-03T14:00:28.097Z,36.50
2022-08-03T14:03:04.011Z,36.50
2022-08-03T14:05:32.982Z,36.60
2022-08-03T14:08:05.658Z,36.70
2022-08-03T14:10:34.464Z,36.80
2022-08-03T14:13:01.622Z,36.80
2022-08-03T14:15:29.059Z,36.80
2022-08-03T14:17:58.710Z,36.90
2022-08-03T14:20:37.926Z,36.80
2022-08-03T14:23:07.145Z,36.90
2022-08-03T14:25:44.261Z,36.80
2022-08-03T14:28:19.162Z,36.80
2022-08-03T14:30:46.268Z,36.80
2022-08-03T14:33:13.215Z,36.70
2022-08-03T14:35:40.365Z,36.70
2022-08-03T14:38:07.348Z,36.60
2022-08-03T14:40:34.364Z,36.60
2022-08-03T14:43:02.486Z,36.50
2022-08-03T14:45:29.471Z,36.40
2022-08-03T14:50:29.464Z,36.40
2022-08-03T14:50:50.344Z,36.40
2022-08-03T14:53:18.869Z,36.40
2022-08-03T14:55:50.713Z,36.40
2022-08-03T14:58:21.125Z,36.30
2022-08-03T15:00:50.332Z,36.30
2022-08-03T15:03:20.491Z,36.20
2022-08-03T15:05:47.732Z,36.20
2022-08-03T15:08:14.734Z,36.10
2022-08-03T15:10:44.931Z,36.10
2022-08-03T15:13:13.482Z,36.00
2022-08-03T15:15:41.169Z,35.90
2022-08-03T15:18:08.570Z,35.90
2022-08-03T15:20:44.534Z,35.90
2022-08-03T15:23:13.301Z,35.90
2022-08-03T15:26:03.894Z,35.80
2022-08-03T15:28:27.199Z,35.90
2022-08-03T15:30:54.274Z,35.90
2022-08-03T15:33:21.225Z,35.90
2022-08-03T15:35:48.430Z,36.00
2022-08-03T15:38:15.690Z,36.10
2022-08-03T15:40:42.646Z,36.10
2022-08-03T15:43:09.708Z,36.20
2022-08-03T15:45:37.198Z,36.20
2022-08-03T15:48:08.164Z,36.30
2022-08-03T15:50:35.241Z,36.30
2022-08-03T15:53:02.182Z,36.30
2022-08-03T15:55:29.496Z,36.40
2022-08-03T15:59:03.801Z,36.40
2022-08-03T16:00:43.731Z,36.40
2022-08-03T16:03:10.819Z,36.40
2022-08-03T16:05:37.889Z,36.40
2022-08-03T16:08:07.100Z,36.40
2022-08-03T16:10:37.351Z,36.40
2022-08-03T16:13:04.257Z,36.30
2022-08-03T16:15:31.260Z,36.20
2022-08-03T16:17:58.252Z,36.10
2022-08-03T16:20:31.668Z,35.90
2022-08-03T16:23:10.834Z,35.80
2022-08-03T16:25:44.409Z,35.70
2022-08-03T16:28:17.338Z,35.60
2022-08-03T16:30:45.684Z,35.40
2022-08-03T16:33:16.987Z,35.30
2022-08-03T16:35:45.968Z,35.10
2022-08-03T16:38:18.608Z,35.00
2022-08-03T16:40:47.300Z,34.90
2022-08-03T16:43:18.302Z,34.80
2022-08-03T16:45:47.220Z,34.60
2022-08-03T16:48:15.368Z,34.50
2022-08-03T16:50:42.451Z,34.30
2022-08-03T16:53:16.619Z,34.30
2022-08-03T16:55:58.026Z,34.10
2022-08-03T16:58:41.307Z,33.90
2022-08-03T17:01:22.097Z,33.80
2022-08-03T17:04:03.491Z,33.80
2022-08-03T17:06:35.435Z,33.70
2022-08-03T17:09:09.482Z,33.60
2022-08-03T17:11:44.065Z,33.50
2022-08-03T17:14:21.940Z,33.40
2022-08-03T17:16:54.087Z,33.30
2022-08-03T17:19:23.760Z,33.10
2022-08-03T17:22:04.201Z,33.00
2022-08-03T17:24:34.957Z,32.90
2022-08-03T17:27:09.257Z,32.80
2022-08-03T17:30:07.668Z,32.70
2022-08-03T17:32:42.447Z,32.60
2022-08-03T17:35:11.166Z,32.50
2022-08-03T17:37:58.671Z,32.30
2022-08-03T17:40:25.786Z,32.30
2022-08-03T17:42:53.237Z,32.30
2022-08-03T17:45:20.696Z,32.20
2022-08-03T17:47:57.112Z,32.10
2022-08-03T17:50:35.363Z,32.10
2022-08-03T17:53:23.471Z,32.00
2022-08-03T17:56:42.648Z,31.90
2022-08-03T17:59:51.538Z,31.80
2022-08-03T18:02:40.501Z,31.80
2022-08-03T18:05:17.679Z,31.70
2022-08-03T18:07:47.638Z,31.60
2022-08-03T18:10:28.310Z,31.50
2022-08-03T18:13:10.427Z,31.40
2022-08-03T18:15:42.776Z,31.30
2022-08-03T18:18:14.071Z,31.30
2022-08-03T18:20:45.722Z,31.20
2022-08-03T18:26:10.760Z,31.00
2022-08-03T18:28:40.616Z,30.90
2022-08-03T18:31:11.561Z,30.80
2022-08-03T18:34:19.155Z,30.80
2022-08-03T18:36:29.696Z,30.80
2022-08-03T18:38:59.518Z,30.60
2022-08-03T18:41:32.364Z,30.60
2022-08-03T18:44:09.533Z,30.50
2022-08-03T18:47:16.193Z,30.40
2022-08-03T18:50:19.311Z,30.30
2022-08-03T18:52:54.078Z,30.30
2022-08-03T18:55:35.842Z,30.10
2022-08-03T18:58:18.369Z,30.10
2022-08-03T19:01:03.605Z,30.00
2022-08-03T19:03:43.219Z,29.90
2022-08-03T19:06:24.226Z,29.80
2022-08-03T19:09:05.374Z,29.80
2022-08-03T19:12:12.394Z,29.70
2022-08-03T19:14:43.261Z,29.60
2022-08-03T19:17:11.841Z,29.50
2022-08-03T19:19:44.913Z,29.40
2022-08-03T19:22:16.308Z,29.40
2022-08-03T19:24:46.357Z,29.30
2022-08-03T19:27:14.240Z,29.30
2022-08-03T19:29:58.515Z,29.20
2022-08-03T19:32:30.835Z,29.10
2022-08-03T19:34:59.915Z,29.10
2022-08-03T19:37:33.280Z,29.00
2022-08-03T19:40:10.956Z,28.90
2022-08-03T19:42:44.472Z,28.90
2022-08-03T19:48:09.991Z,28.80
2022-08-03T19:50:37.965Z,28.60
2022-08-03T19:53:13.443Z,28.60
2022-08-03T19:55:49.083Z,28.50
2022-08-03T20:01:19.367Z,28.40
2022-08-03T20:03:49.506Z,28.30
2022-08-03T20:06:18.055Z,28.20
2022-08-03T20:08:51.472Z,28.10
2022-08-03T20:11:20.051Z,28.00
2022-08-03T20:13:49.827Z,27.90
2022-08-03T20:16:16.830Z,27.90
2022-08-03T20:18:44.391Z,27.80
2022-08-03T20:21:15.613Z,27.80
2022-08-03T20:24:00.054Z,27.70
2022-08-03T20:26:31.027Z,27.60
2022-08-03T20:29:10.122Z,27.60
2022-08-03T20:31:37.705Z,27.50
2022-08-03T20:34:06.464Z,27.40
2022-08-03T20:36:33.502Z,27.40
2022-08-03T20:39:00.568Z,27.30
2022-08-03T20:41:27.667Z,27.30
2022-08-03T20:43:59.287Z,27.20
2022-08-03T20:46:31.889Z,27.20
2022-08-03T20:49:05.069Z,27.10
2022-08-03T20:51:50.626Z,27.00
2022-08-03T20:54:30.951Z,26.90
2022-08-03T20:57:04.446Z,26.90
2022-08-03T20:59:50.092Z,26.80
2022-08-03T21:02:29.471Z,26.70
2022-08-03T21:05:03.804Z,26.60
2022-08-03T21:08:06.358Z,26.60
2022-08-03T21:10:35.853Z,26.50
2022-08-03T21:13:05.597Z,31.10
2022-08-03T21:13:08.461Z,28.80
2022-08-03T21:13:11.013Z,28.40
2022-08-03T21:13:23.512Z,26.40
2022-08-03T21:16:03.281Z,26.40
2022-08-03T21:18:52.411Z,26.30
2022-08-03T21:21:22.431Z,26.30
2022-08-03T21:23:52.922Z,26.20
2022-08-03T21:26:25.511Z,26.20
2022-08-03T21:28:55.209Z,26.10
2022-08-03T21:31:25.449Z,26.10
2022-08-03T21:33:58.167Z,26.00
2022-08-03T21:36:27.902Z,26.00
2022-08-03T21:38:57.598Z,25.90
2022-08-03T21:41:27.223Z,25.90
2022-08-03T21:43:54.218Z,25.90
2022-08-03T21:46:22.499Z,25.80
2022-08-03T21:48:54.765Z,25.80
2022-08-03T21:51:25.525Z,25.70
2022-08-03T21:54:03.417Z,25.60
2022-08-03T21:56:41.685Z,25.50
2022-08-03T21:59:16.040Z,25.50
2022-08-03T22:01:45.600Z,25.40
2022-08-03T22:04:50.603Z,25.40
2022-08-03T22:07:07.050Z,25.30
2022-08-03T22:09:35.333Z,25.30
2022-08-03T22:12:02.605Z,25.30
2022-08-03T22:14:32.222Z,25.20
2022-08-03T22:17:01.014Z,25.10
2022-08-03T22:19:33.378Z,25.00
2022-08-03T22:22:01.551Z,25.00
2022-08-03T22:24:32.065Z,25.00
2022-08-03T22:27:21.295Z,24.90
2022-08-03T22:29:51.021Z,24.90
2022-08-03T22:32:17.982Z,24.80
2022-08-03T22:34:46.948Z,24.80
2022-08-03T22:37:17.080Z,24.70
2022-08-03T22:39:44.787Z,24.70
2022-08-03T22:42:12.821Z,24.60
2022-08-03T22:44:40.688Z,24.50
2022-08-03T22:47:09.650Z,24.50
2022-08-03T22:49:37.899Z,24.40
2022-08-03T22:52:07.484Z,24.40
2022-08-03T22:54:36.139Z,24.40
2022-08-03T22:57:04.664Z,24.40
2022-08-03T22:59:40.257Z,24.30
2022-08-03T23:02:20.935Z,24.30
2022-08-03T23:04:57.027Z,24.30
2022-08-03T23:07:36.547Z,24.30
2022-08-03T23:10:10.886Z,24.30
2022-08-03T23:12:39.846Z,24.30
2022-08-03T23:15:13.702Z,24.20
2022-08-03T23:17:57.889Z,24.20
2022-08-03T23:20:27.044Z,24.20
2022-08-03T23:22:57.847Z,24.10
2022-08-03T23:25:25.251Z,24.10
2022-08-03T23:28:04.935Z,24.00
2022-08-03T23:30:37.212Z,24.00
2022-08-03T23:33:05.269Z,23.90
2022-08-03T23:36:18.755Z,23.90
2022-08-03T23:38:37.794Z,23.90
2022-08-03T23:41:05.305Z,23.80
2022-08-03T23:43:51.477Z,23.80
2022-08-03T23:46:21.246Z,23.80
2022-08-03T23:48:48.660Z,23.70
2022-08-03T23:51:33.839Z,23.70
2022-08-03T23:54:12.490Z,23.60
2022-08-03T23:56:55.413Z,23.50
2022-08-03T23:59:31.172Z,23.50
